»·PEaware :: N621SD L52-L88

N621SD :: L52-L88

FLIGHT INFORMATION

Flight Status: Arrived
Operator: Privately registered:
United States
More flights under this callsign
Pilot: Scott S. (20848)
Aircraft: CESSNA 172 SKYHAWK
(C172)
More flights by this aircraft type
Origin: L52 Oceano Co
United States
Destination: L88 New Cuyama
United States
More flights between these airports :: More routes between these airports
Route: DCT L88
File this flight plan on PilotEdge
Remarks: CAT 1 RATING
Altitude:
(Current/Filed)
5,000ft
Speed:
(Current/Filed)
115kts
Departed: 04-Dec-18 09:55 AM
Arrived: 04-Dec-18 10:27 AM
Distance/Time
Traveled:
47nm/0:31
Distance/Time
To Go:
Arrived

Flight Plot

Page will automatically refresh every two minutes.


Map Options




Map Legend


Flown Route
Filed Route
Departure Airport
Arrival Airport
Navaid (VOR, NDB)
Fix

Horizontal Profiles

Position Reports

Time Latitude Longitude Heading Altitude Ground
Speed
04-Dec-18 09:44 35.103381 -120.624689 212 18ft 0kts
04-Dec-18 09:45 35.103381 -120.624689 212 18ft 0kts
04-Dec-18 09:46 35.103381 -120.624689 212 18ft 0kts
04-Dec-18 09:47 35.103280 -120.624776 223 18ft 0kts
04-Dec-18 09:48 35.103274 -120.624784 223 18ft 0kts
04-Dec-18 09:49 35.102766 -120.623692 123 18ft 12kts
04-Dec-18 09:50 35.101116 -120.622516 119 18ft 15kts
04-Dec-18 09:51 35.099446 -120.619583 48 18ft 0kts
04-Dec-18 09:52 35.099446 -120.619583 48 18ft 0kts
04-Dec-18 09:53 35.099447 -120.619581 48 18ft 0kts
04-Dec-18 09:54 35.106556 -120.631711 302 331ft 82kts
04-Dec-18 09:55 35.120593 -120.654706 324 1229ft 83kts
04-Dec-18 09:56 35.119653 -120.634960 126 1842ft 88kts
04-Dec-18 09:57 35.104860 -120.611842 129 2538ft 87kts
04-Dec-18 09:58 35.091253 -120.586124 94 3090ft 104kts
04-Dec-18 09:59 35.090204 -120.553592 111 3763ft 93kts
04-Dec-18 10:00 35.084564 -120.522753 110 4318ft 93kts
04-Dec-18 10:01 35.078434 -120.487392 107 4502ft 118kts
04-Dec-18 10:02 35.072508 -120.450077 110 4500ft 106kts
04-Dec-18 10:03 35.066657 -120.415702 110 4491ft 102kts
04-Dec-18 10:04 35.060926 -120.382050 109 4490ft 99kts
04-Dec-18 10:05 35.055427 -120.349807 109 4490ft 96kts
04-Dec-18 10:06 35.050031 -120.318244 108 4492ft 94kts
04-Dec-18 10:07 35.044424 -120.285514 108 4493ft 109kts
04-Dec-18 10:08 35.037774 -120.246700 107 4492ft 121kts
04-Dec-18 10:09 35.030822 -120.206166 107 4492ft 122kts
04-Dec-18 10:10 35.023836 -120.165557 107 4492ft 123kts
04-Dec-18 10:11 35.016758 -120.124507 107 4492ft 123kts
04-Dec-18 10:12 35.009869 -120.084407 108 4639ft 110kts
04-Dec-18 10:13 35.003810 -120.048907 109 4998ft 119kts
04-Dec-18 10:14 34.996491 -120.007291 108 5007ft 125kts
04-Dec-18 10:15 34.989151 -119.965403 107 4733ft 136kts
04-Dec-18 10:16 34.980945 -119.918351 106 4230ft 138kts
04-Dec-18 10:17 34.973528 -119.876044 105 3984ft 110kts
04-Dec-18 10:18 34.967352 -119.840390 105 3920ft 121kts
04-Dec-18 10:19 34.959047 -119.797121 104 3282ft 131kts
04-Dec-18 10:20 34.946300 -119.760279 110 3046ft 114kts
04-Dec-18 10:21 34.938470 -119.724357 116 3052ft 103kts
04-Dec-18 10:22 34.926149 -119.693344 113 3194ft 105kts
04-Dec-18 10:23 34.915944 -119.659473 107 3356ft 110kts
04-Dec-18 10:24 34.927368 -119.650430 288 3127ft 83kts
04-Dec-18 10:25 34.935058 -119.673548 296 2414ft 58kts
04-Dec-18 10:26 34.941140 -119.688461 295 2207ft 25kts
04-Dec-18 10:27 34.942487 -119.690747 240 2207ft 0kts
04-Dec-18 10:28 34.942487 -119.690747 240 2207ft 0kts
04-Dec-18 10:29 34.942487 -119.690747 240 2207ft 0kts
04-Dec-18 10:30 34.942487 -119.690747 240 2207ft 0kts
04-Dec-18 10:31 34.942487 -119.690747 240 2207ft 0kts
04-Dec-18 10:32 34.942487 -119.690747 240 2207ft 0kts
04-Dec-18 10:33 34.942487 -119.690747 240 2207ft 0kts
04-Dec-18 10:34 34.942487 -119.690747 240 2207ft 0kts
04-Dec-18 10:35 34.942487 -119.690747 240 2207ft 0kts
04-Dec-18 10:36 34.942487 -119.690747 240 2207ft 0kts
04-Dec-18 10:37 34.942487 -119.690747 240 2207ft 0kts
04-Dec-18 10:38 34.942487 -119.690747 240 2207ft 0kts
04-Dec-18 10:39 34.942487 -119.690747 240 2207ft 0kts
04-Dec-18 10:40 34.942487 -119.690747 240 2207ft 0kts

Navigation Log

Ident Type
Flight plan parsing failed, navigation log unavailable